createdAt,value
2017-07-19T00:00:59.960Z,69.50
2017-07-19T00:03:28.152Z,68.30
2017-07-19T00:05:55.589Z,68.30
2017-07-19T00:08:23.044Z,68.50
2017-07-19T00:10:50.493Z,69.00
2017-07-19T00:13:17.937Z,69.10
2017-07-19T00:15:45.378Z,69.20
2017-07-19T00:18:12.803Z,69.50
2017-07-19T00:20:40.235Z,68.80
2017-07-19T00:23:08.445Z,69.30
2017-07-19T00:25:35.881Z,69.00
2017-07-19T00:28:03.318Z,69.80
2017-07-19T00:30:30.752Z,69.40
2017-07-19T00:32:58.188Z,69.40
2017-07-19T00:35:25.638Z,69.40
2017-07-19T00:37:53.056Z,70.60
2017-07-19T00:40:21.274Z,69.60
2017-07-19T00:42:48.715Z,69.50
2017-07-19T00:45:16.152Z,69.30
2017-07-19T00:47:44.361Z,70.10
2017-07-19T00:50:11.787Z,70.10
2017-07-19T00:52:39.233Z,70.50
2017-07-19T00:55:07.444Z,70.00
2017-07-19T00:57:34.875Z,69.80
2017-07-19T01:00:02.311Z,70.90
2017-07-19T01:02:29.750Z,71.60
2017-07-19T01:04:57.189Z,71.50
2017-07-19T01:07:24.633Z,71.60
2017-07-19T01:09:52.056Z,71.00
2017-07-19T01:12:19.504Z,70.70
2017-07-19T01:14:46.938Z,70.40
2017-07-19T01:17:14.372Z,71.80
2017-07-19T01:19:41.818Z,71.50
2017-07-19T01:22:09.275Z,71.00
2017-07-19T01:24:36.705Z,71.10
2017-07-19T01:27:04.165Z,70.80
2017-07-19T01:29:31.593Z,71.00
2017-07-19T01:31:59.792Z,71.50
2017-07-19T01:34:27.218Z,71.30
2017-07-19T01:36:55.433Z,71.90
2017-07-19T01:39:22.859Z,71.20
2017-07-19T01:41:51.061Z,70.70
2017-07-19T01:44:18.499Z,70.70
2017-07-19T01:46:45.923Z,70.80
2017-07-19T01:49:13.355Z,70.50
2017-07-19T01:51:40.804Z,70.60
2017-07-19T01:54:08.239Z,70.70
2017-07-19T01:56:35.663Z,70.90
2017-07-19T01:59:03.104Z,71.30
2017-07-19T02:01:30.537Z,71.00
2017-07-19T02:03:57.967Z,71.20
2017-07-19T02:06:25.405Z,71.50
2017-07-19T02:08:53.614Z,71.40
2017-07-19T02:11:21.048Z,71.30
2017-07-19T02:13:48.482Z,71.60
2017-07-19T02:16:16.684Z,71.70
2017-07-19T02:18:44.124Z,71.60
2017-07-19T02:21:12.314Z,71.60
2017-07-19T02:23:39.747Z,71.60
2017-07-19T02:26:07.952Z,71.50
2017-07-19T02:28:35.380Z,71.50
2017-07-19T02:31:03.575Z,71.90
2017-07-19T02:33:31.001Z,71.80
2017-07-19T02:35:58.436Z,71.80
2017-07-19T02:38:25.867Z,71.80
2017-07-19T02:40:53.305Z,71.80
2017-07-19T02:43:20.737Z,71.80
2017-07-19T02:45:48.941Z,72.30
2017-07-19T02:48:16.360Z,72.20
2017-07-19T02:50:44.568Z,72.30
2017-07-19T02:53:11.992Z,72.30
2017-07-19T02:55:40.195Z,72.40
2017-07-19T02:58:07.625Z,72.40
2017-07-19T03:00:35.095Z,73.00
2017-07-19T03:03:02.538Z,72.60
2017-07-19T03:05:29.973Z,72.60
2017-07-19T03:07:57.400Z,72.50
2017-07-19T03:10:24.835Z,72.30
2017-07-19T03:12:52.268Z,72.40
2017-07-19T03:15:20.472Z,72.40
2017-07-19T03:17:47.912Z,72.40
2017-07-19T03:20:16.174Z,72.60
2017-07-19T03:22:50.046Z,72.50
2017-07-19T03:25:17.472Z,72.50
2017-07-19T03:27:44.905Z,72.80
2017-07-19T03:30:13.105Z,72.70
2017-07-19T03:32:40.540Z,72.70
2017-07-19T03:35:07.963Z,73.90
2017-07-19T03:37:35.401Z,73.30
2017-07-19T03:40:02.828Z,73.80
2017-07-19T03:42:30.273Z,73.80
2017-07-19T03:44:57.704Z,73.10
2017-07-19T03:47:25.899Z,73.20
2017-07-19T03:49:53.334Z,73.50
2017-07-19T03:52:20.774Z,73.80
2017-07-19T03:54:48.204Z,73.60
2017-07-19T03:57:15.636Z,74.30
2017-07-19T03:59:43.064Z,73.90
2017-07-19T04:02:10.505Z,73.30
2017-07-19T04:04:37.945Z,72.70
2017-07-19T04:07:05.377Z,73.40
2017-07-19T04:09:32.813Z,73.80
2017-07-19T04:12:00.273Z,73.50
2017-07-19T04:14:27.742Z,73.40
2017-07-19T04:16:55.169Z,72.70
2017-07-19T04:19:23.373Z,73.00
2017-07-19T04:21:51.816Z,72.90
2017-07-19T04:24:20.017Z,72.90
2017-07-19T04:26:47.457Z,72.90
2017-07-19T04:29:20.235Z,73.00
2017-07-19T04:31:48.446Z,72.90
2017-07-19T04:34:15.881Z,72.90
2017-07-19T04:36:43.308Z,72.50
2017-07-19T04:39:11.515Z,73.20
2017-07-19T04:41:39.364Z,72.70
2017-07-19T04:44:07.567Z,72.70
2017-07-19T04:46:35.007Z,72.70
2017-07-19T04:49:02.440Z,72.90
2017-07-19T04:51:29.884Z,72.50
2017-07-19T04:53:57.329Z,72.80
2017-07-19T04:56:24.781Z,72.20
2017-07-19T04:58:52.220Z,71.70
2017-07-19T05:01:19.648Z,71.70
2017-07-19T05:03:47.083Z,72.50
2017-07-19T05:06:14.517Z,71.60
2017-07-19T05:08:41.961Z,71.50
2017-07-19T05:11:09.401Z,71.90
2017-07-19T05:13:36.827Z,71.40
2017-07-19T05:16:04.269Z,71.60
2017-07-19T05:18:32.468Z,72.40
2017-07-19T05:20:59.905Z,71.70
2017-07-19T05:23:28.108Z,71.50
2017-07-19T05:25:55.552Z,71.40
2017-07-19T05:28:22.981Z,70.90
2017-07-19T05:30:51.191Z,71.30
2017-07-19T05:33:18.625Z,70.60
2017-07-19T05:35:46.823Z,70.80
2017-07-19T05:38:14.247Z,70.80
2017-07-19T05:40:42.456Z,71.10
2017-07-19T05:43:09.888Z,70.40
2017-07-19T05:45:37.328Z,69.90
2017-07-19T05:48:04.784Z,69.60
2017-07-19T05:50:32.226Z,69.90
2017-07-19T05:52:59.646Z,70.40
2017-07-19T05:55:27.083Z,69.70
2017-07-19T05:57:54.511Z,69.60
2017-07-19T06:00:21.936Z,69.30
2017-07-19T06:02:49.376Z,69.50
2017-07-19T06:05:16.812Z,69.00
2017-07-19T06:07:44.244Z,68.60
2017-07-19T06:10:12.466Z,68.00
2017-07-19T06:12:39.905Z,68.00
2017-07-19T06:15:07.344Z,67.80
2017-07-19T06:17:34.777Z,67.00
2017-07-19T06:20:02.205Z,66.70
2017-07-19T06:22:29.641Z,67.00
2017-07-19T06:24:57.078Z,66.20
2017-07-19T06:27:24.513Z,64.80
2017-07-19T06:29:52.716Z,65.00
2017-07-19T06:32:20.152Z,65.00
2017-07-19T06:34:48.349Z,64.90
2017-07-19T06:37:15.793Z,64.90
2017-07-19T06:39:43.989Z,63.00
2017-07-19T06:42:11.442Z,62.80
2017-07-19T06:44:38.852Z,62.90
2017-07-19T06:47:06.293Z,62.60
2017-07-19T06:52:27.248Z,61.00
2017-07-19T06:54:55.539Z,61.10
2017-07-19T06:57:22.984Z,60.90
2017-07-19T06:59:50.418Z,59.80
2017-07-19T07:02:17.865Z,59.30
2017-07-19T07:04:45.297Z,57.50
2017-07-19T07:07:12.740Z,57.20
2017-07-19T07:09:40.163Z,56.10
2017-07-19T07:12:07.612Z,55.20
2017-07-19T07:14:35.032Z,54.00
2017-07-19T07:17:02.480Z,54.40
2017-07-19T07:19:29.905Z,53.30
2017-07-19T07:21:57.349Z,54.20
2017-07-19T07:24:24.779Z,54.90
2017-07-19T07:26:52.200Z,52.30
2017-07-19T07:29:19.631Z,51.90
2017-07-19T07:31:47.063Z,50.60
2017-07-19T07:34:14.495Z,50.50
2017-07-19T07:36:41.986Z,48.60
2017-07-19T07:39:09.424Z,48.60
2017-07-19T07:41:36.846Z,47.70
2017-07-19T07:44:04.296Z,48.80
2017-07-19T07:46:32.647Z,48.60
2017-07-19T07:49:00.856Z,47.80
2017-07-19T07:51:28.421Z,47.80
2017-07-19T07:53:55.852Z,46.80
2017-07-19T07:56:23.284Z,47.30
2017-07-19T07:58:50.723Z,45.50
2017-07-19T08:01:18.146Z,45.40
2017-07-19T08:03:45.583Z,45.40
2017-07-19T08:06:13.021Z,45.40
2017-07-19T08:08:41.228Z,44.20
2017-07-19T08:11:08.652Z,44.20
2017-07-19T08:13:36.076Z,45.70
2017-07-19T08:16:03.498Z,43.60
2017-07-19T08:18:30.932Z,43.60
2017-07-19T08:20:58.355Z,43.00
2017-07-19T08:23:26.556Z,41.30
2017-07-19T08:25:53.982Z,41.70
2017-07-19T08:28:21.420Z,42.10
2017-07-19T08:30:48.903Z,44.30
2017-07-19T08:33:16.334Z,43.30
2017-07-19T08:35:43.781Z,39.20
2017-07-19T08:38:11.203Z,40.60
2017-07-19T08:40:38.632Z,39.60
2017-07-19T08:43:06.816Z,38.10
2017-07-19T08:45:34.250Z,38.10
2017-07-19T08:48:01.667Z,38.50
2017-07-19T08:50:29.121Z,37.90
2017-07-19T08:52:56.537Z,38.70
2017-07-19T08:55:24.751Z,37.10
2017-07-19T08:57:52.190Z,37.10
2017-07-19T09:00:19.615Z,35.70
2017-07-19T09:02:47.041Z,36.40
2017-07-19T09:05:14.468Z,35.00
2017-07-19T09:07:41.895Z,37.70
2017-07-19T09:10:10.086Z,35.10
2017-07-19T09:12:38.510Z,35.10
2017-07-19T09:15:05.920Z,35.00
2017-07-19T09:17:33.360Z,34.10
2017-07-19T09:20:01.564Z,33.50
2017-07-19T09:22:28.996Z,33.50
2017-07-19T09:24:57.188Z,35.80
2017-07-19T09:27:24.620Z,35.70
2017-07-19T09:29:52.812Z,33.70
2017-07-19T09:32:20.244Z,33.70
2017-07-19T09:34:47.692Z,34.00
2017-07-19T09:37:15.126Z,36.00
2017-07-19T09:39:42.607Z,33.90
2017-07-19T09:42:10.045Z,35.10
2017-07-19T09:44:37.481Z,36.40
2017-07-19T09:47:04.916Z,34.80
2017-07-19T09:49:32.331Z,33.80
2017-07-19T09:51:59.766Z,33.60
2017-07-19T09:54:27.193Z,33.90
2017-07-19T09:56:54.620Z,33.70
2017-07-19T09:59:24.832Z,34.10
2017-07-19T10:01:53.028Z,34.30
2017-07-19T10:04:20.452Z,34.20
2017-07-19T10:06:47.906Z,34.40
2017-07-19T10:09:15.326Z,33.90
2017-07-19T10:11:43.763Z,34.20
2017-07-19T10:14:11.184Z,35.30
2017-07-19T10:16:38.625Z,34.90
2017-07-19T10:19:06.044Z,33.90
2017-07-19T10:21:33.486Z,34.10
2017-07-19T10:24:00.936Z,34.30
2017-07-19T10:26:28.361Z,33.60
2017-07-19T10:28:55.803Z,33.80
2017-07-19T10:31:23.232Z,34.00
2017-07-19T10:33:50.659Z,34.40
2017-07-19T10:36:18.088Z,33.80
2017-07-19T10:38:45.516Z,33.90
2017-07-19T10:41:12.945Z,34.20
2017-07-19T10:43:40.396Z,34.50
2017-07-19T10:46:08.581Z,34.00
2017-07-19T10:48:36.020Z,33.90
2017-07-19T10:51:04.207Z,34.30
2017-07-19T10:53:32.407Z,33.70
2017-07-19T10:55:59.865Z,33.70
2017-07-19T10:58:27.302Z,34.40
2017-07-19T11:00:54.724Z,34.00
2017-07-19T11:03:22.175Z,33.90
2017-07-19T11:05:49.592Z,33.70
2017-07-19T11:08:17.028Z,33.70
2017-07-19T11:10:44.459Z,34.00
2017-07-19T11:13:11.888Z,33.70
2017-07-19T11:15:39.325Z,32.70
2017-07-19T11:18:06.752Z,34.80
2017-07-19T11:20:34.172Z,32.10
2017-07-19T11:23:01.614Z,30.90
2017-07-19T11:25:29.055Z,31.00
2017-07-19T11:27:56.480Z,30.50
2017-07-19T11:30:23.907Z,31.00
2017-07-19T11:32:51.343Z,31.90
2017-07-19T11:35:18.781Z,32.30
2017-07-19T11:37:46.195Z,31.20
2017-07-19T11:40:14.414Z,30.90
2017-07-19T11:42:41.845Z,30.90
2017-07-19T11:45:09.284Z,31.80
2017-07-19T11:47:37.482Z,29.70
2017-07-19T11:50:04.916Z,29.70
2017-07-19T11:52:33.117Z,30.00
2017-07-19T11:55:00.553Z,29.90
2017-07-19T11:57:27.981Z,30.80
2017-07-19T11:59:55.421Z,31.60
2017-07-19T12:02:22.882Z,32.80
2017-07-19T12:04:50.310Z,33.60
2017-07-19T12:07:17.742Z,31.70
2017-07-19T12:09:45.168Z,32.00
2017-07-19T12:12:12.594Z,32.70
2017-07-19T12:14:40.020Z,32.90
2017-07-19T12:17:07.449Z,33.30
2017-07-19T12:19:35.648Z,33.20
2017-07-19T12:22:03.085Z,33.10
2017-07-19T12:24:31.275Z,32.70
2017-07-19T12:26:58.703Z,32.70
2017-07-19T12:29:26.919Z,32.20
2017-07-19T12:31:54.363Z,32.20
2017-07-19T12:34:21.793Z,32.10
2017-07-19T12:36:49.996Z,32.90
2017-07-19T12:39:17.419Z,32.30
2017-07-19T12:41:44.854Z,32.30
2017-07-19T12:44:12.289Z,33.00
2017-07-19T12:46:39.722Z,31.90
2017-07-19T12:49:07.139Z,33.80
2017-07-19T12:51:34.584Z,32.30
2017-07-19T12:54:02.024Z,32.00
2017-07-19T12:56:29.446Z,32.20
2017-07-19T12:58:56.871Z,32.60
2017-07-19T13:01:24.309Z,32.80
2017-07-19T13:03:52.561Z,33.00
2017-07-19T13:06:19.988Z,33.10
2017-07-19T13:08:47.411Z,32.80
2017-07-19T13:11:14.853Z,33.20
2017-07-19T13:13:42.288Z,32.20
2017-07-19T13:16:09.725Z,32.30
2017-07-19T13:18:37.153Z,32.90
2017-07-19T13:21:04.584Z,32.80
2017-07-19T13:23:32.014Z,31.60
2017-07-19T13:25:59.538Z,32.50
2017-07-19T13:28:26.957Z,32.00
2017-07-19T13:30:54.386Z,32.20
2017-07-19T13:33:21.817Z,33.50
2017-07-19T13:35:49.240Z,33.70
2017-07-19T13:38:17.456Z,32.30
2017-07-19T13:40:44.888Z,32.50
2017-07-19T13:43:12.312Z,33.20
2017-07-19T13:45:39.740Z,33.00
2017-07-19T13:48:07.177Z,32.80
2017-07-19T13:50:34.611Z,32.90
2017-07-19T13:53:02.037Z,32.70
2017-07-19T13:55:29.479Z,33.90
2017-07-19T13:57:56.905Z,32.60
2017-07-19T14:00:24.333Z,32.90
2017-07-19T14:02:52.537Z,34.10
2017-07-19T14:05:19.950Z,34.10
2017-07-19T14:07:47.412Z,33.70
2017-07-19T14:10:15.621Z,32.80
2017-07-19T14:12:43.045Z,32.70
2017-07-19T14:15:11.236Z,32.90
2017-07-19T14:17:38.674Z,32.90
2017-07-19T14:20:06.948Z,32.10
2017-07-19T14:22:34.384Z,32.00
2017-07-19T14:25:01.862Z,32.20
2017-07-19T14:27:29.317Z,33.60
2017-07-19T14:29:56.745Z,33.00
2017-07-19T14:32:24.223Z,33.30
2017-07-19T14:34:52.834Z,32.70
2017-07-19T14:37:21.022Z,32.50
2017-07-19T14:39:48.461Z,32.40
2017-07-19T14:42:16.651Z,32.70
2017-07-19T14:44:44.083Z,32.70
2017-07-19T14:47:12.277Z,32.60
2017-07-19T14:49:39.707Z,32.00
2017-07-19T14:52:07.137Z,32.50
2017-07-19T14:54:34.578Z,32.70
2017-07-19T14:57:02.031Z,33.30
2017-07-19T14:59:29.453Z,33.00
2017-07-19T15:01:56.884Z,33.10
2017-07-19T15:04:24.325Z,33.70
2017-07-19T15:06:51.756Z,33.60
2017-07-19T15:09:19.184Z,33.60
2017-07-19T15:11:46.619Z,32.60
2017-07-19T15:14:14.825Z,33.40
2017-07-19T15:16:42.257Z,33.40
2017-07-19T15:19:09.689Z,33.00
2017-07-19T15:21:37.116Z,33.70
2017-07-19T15:24:04.556Z,35.70
2017-07-19T15:26:31.979Z,37.00
2017-07-19T15:29:00.202Z,36.00
2017-07-19T15:31:27.629Z,36.00
2017-07-19T15:33:55.052Z,36.10
2017-07-19T15:36:22.490Z,38.50
2017-07-19T15:38:50.909Z,36.80
2017-07-19T15:41:18.344Z,38.00
2017-07-19T15:43:45.777Z,36.10
2017-07-19T15:46:13.217Z,39.10
2017-07-19T15:48:40.649Z,41.80
2017-07-19T15:51:08.081Z,40.40
2017-07-19T15:53:36.462Z,40.80
2017-07-19T15:56:03.892Z,41.10
2017-07-19T15:58:31.326Z,39.50
2017-07-19T16:00:58.755Z,40.00
2017-07-19T16:03:26.194Z,41.10
2017-07-19T16:05:53.629Z,42.30
2017-07-19T16:08:21.062Z,40.50
2017-07-19T16:10:48.484Z,39.70
2017-07-19T16:13:15.925Z,40.50
2017-07-19T16:15:44.120Z,42.30
2017-07-19T16:18:11.565Z,42.20
2017-07-19T16:20:38.998Z,41.00
2017-07-19T16:23:06.425Z,40.70
2017-07-19T16:25:33.866Z,40.00
2017-07-19T16:28:01.280Z,43.20
2017-07-19T16:30:29.481Z,43.10
2017-07-19T16:32:56.916Z,43.10
2017-07-19T16:35:25.109Z,43.20
2017-07-19T16:37:52.593Z,43.10
2017-07-19T16:40:20.016Z,42.40
2017-07-19T16:42:47.456Z,44.10
2017-07-19T16:45:15.653Z,44.00
2017-07-19T16:47:43.085Z,43.90
2017-07-19T16:50:11.283Z,43.00
2017-07-19T16:52:38.803Z,43.00
2017-07-19T16:55:06.254Z,43.50
2017-07-19T16:57:33.704Z,43.10
2017-07-19T17:00:01.168Z,44.00
2017-07-19T17:02:28.596Z,44.50
2017-07-19T17:04:56.024Z,43.70
2017-07-19T17:07:23.461Z,44.70
2017-07-19T17:09:51.657Z,43.40
2017-07-19T17:12:19.087Z,43.40
2017-07-19T17:14:47.292Z,44.30
2017-07-19T17:17:14.740Z,44.30
2017-07-19T17:19:42.165Z,44.30
2017-07-19T17:22:09.600Z,45.30
2017-07-19T17:24:37.032Z,45.90
2017-07-19T17:27:04.464Z,45.80
2017-07-19T17:29:31.916Z,47.20
2017-07-19T17:31:59.381Z,47.60
2017-07-19T17:34:26.805Z,47.90
2017-07-19T17:36:54.249Z,48.00
2017-07-19T17:39:21.673Z,49.40
2017-07-19T17:41:49.112Z,48.90
2017-07-19T17:44:16.540Z,48.20
2017-07-19T17:46:44.735Z,49.60
2017-07-19T17:49:12.165Z,49.60
2017-07-19T17:51:39.583Z,49.90
2017-07-19T17:54:07.013Z,50.30
2017-07-19T17:56:34.431Z,51.40
2017-07-19T17:59:01.863Z,50.60
2017-07-19T18:01:29.302Z,51.50
2017-07-19T18:03:56.733Z,52.40
2017-07-19T18:06:24.160Z,52.00
2017-07-19T18:08:54.444Z,52.00
2017-07-19T18:11:21.870Z,51.00
2017-07-19T18:13:49.326Z,52.30
2017-07-19T18:16:16.748Z,52.20
2017-07-19T18:18:44.197Z,51.70
2017-07-19T18:21:11.701Z,51.30
2017-07-19T18:23:53.714Z,50.70
2017-07-19T18:26:21.898Z,51.10
2017-07-19T18:28:49.350Z,51.10
2017-07-19T18:31:17.764Z,51.00
2017-07-19T18:33:45.203Z,51.00
2017-07-19T18:36:14.396Z,51.20
2017-07-19T18:38:41.825Z,51.10
2017-07-19T18:41:09.257Z,51.50
2017-07-19T18:43:36.692Z,51.00
2017-07-19T18:46:04.130Z,52.00
2017-07-19T18:48:31.566Z,51.90
2017-07-19T18:50:58.997Z,51.80
2017-07-19T18:53:30.124Z,53.80
2017-07-19T18:55:58.395Z,55.80
2017-07-19T18:58:42.675Z,55.70
2017-07-19T19:01:10.118Z,54.30
2017-07-19T19:03:37.545Z,55.00
2017-07-19T19:06:04.985Z,55.30
2017-07-19T19:08:32.428Z,56.00
2017-07-19T19:10:59.852Z,56.60
2017-07-19T19:13:27.284Z,56.10
2017-07-19T19:15:54.712Z,56.10
2017-07-19T19:18:22.152Z,55.60
2017-07-19T19:20:49.596Z,55.90
2017-07-19T19:23:17.032Z,57.20
2017-07-19T19:25:44.469Z,56.50
2017-07-19T19:28:11.888Z,56.80
2017-07-19T19:30:41.328Z,55.90
2017-07-19T19:33:09.795Z,56.40
2017-07-19T19:35:37.244Z,56.90
2017-07-19T19:38:04.668Z,57.20
2017-07-19T19:40:35.384Z,57.40
2017-07-19T19:43:03.907Z,57.80
2017-07-19T19:45:31.360Z,58.10
2017-07-19T19:47:58.786Z,58.40
2017-07-19T19:50:28.265Z,58.40
2017-07-19T19:53:08.945Z,58.00
2017-07-19T19:55:36.373Z,58.30
2017-07-19T19:58:04.573Z,59.00
2017-07-19T20:00:32.953Z,58.60
2017-07-19T20:03:00.384Z,58.40
2017-07-19T20:05:27.816Z,58.40
2017-07-19T20:07:55.257Z,58.90
2017-07-19T20:10:22.681Z,59.10
2017-07-19T20:15:59.177Z,59.90
2017-07-19T20:18:26.604Z,59.80
2017-07-19T20:21:01.925Z,60.10
2017-07-19T20:23:29.360Z,60.00
2017-07-19T20:25:56.799Z,60.30
2017-07-19T20:28:24.233Z,61.00
2017-07-19T20:30:51.655Z,61.30
2017-07-19T20:33:19.096Z,61.40
2017-07-19T20:35:46.523Z,61.20
2017-07-19T20:38:13.968Z,60.60
2017-07-19T20:40:46.092Z,60.80
2017-07-19T20:43:13.563Z,61.00
2017-07-19T20:48:36.721Z,61.60
2017-07-19T20:51:04.937Z,62.30
2017-07-19T20:53:36.149Z,62.20
2017-07-19T20:56:04.369Z,63.60
2017-07-19T20:58:31.814Z,63.50
2017-07-19T21:01:01.438Z,64.10
2017-07-19T21:03:28.864Z,64.20
2017-07-19T21:05:56.296Z,64.70
2017-07-19T21:08:23.731Z,64.40
2017-07-19T21:10:51.212Z,65.10
2017-07-19T21:13:18.644Z,65.50
2017-07-19T21:15:46.078Z,66.20
2017-07-19T21:18:13.516Z,66.70
2017-07-19T21:20:40.956Z,66.90
2017-07-19T21:23:09.165Z,66.80
2017-07-19T21:25:36.592Z,66.80
2017-07-19T21:28:04.028Z,67.70
2017-07-19T21:30:31.553Z,67.30
2017-07-19T21:33:09.768Z,67.30
2017-07-19T21:35:37.202Z,67.20
2017-07-19T21:38:18.683Z,68.30
2017-07-19T21:40:46.107Z,69.70
2017-07-19T21:43:13.548Z,68.70
2017-07-19T21:45:40.984Z,68.90
2017-07-19T21:48:08.441Z,69.20
2017-07-19T21:50:35.872Z,69.70
2017-07-19T21:53:03.297Z,70.00
2017-07-19T21:55:41.768Z,70.40
2017-07-19T21:58:09.201Z,71.50
2017-07-19T22:00:36.641Z,71.00
2017-07-19T22:03:04.068Z,71.50
2017-07-19T22:05:32.272Z,70.60
2017-07-19T22:08:00.388Z,70.60
2017-07-19T22:10:27.938Z,70.60
2017-07-19T22:12:55.361Z,71.00
2017-07-19T22:15:22.796Z,70.50
2017-07-19T22:17:50.229Z,71.20
2017-07-19T22:20:17.664Z,71.40
2017-07-19T22:22:45.100Z,71.40
2017-07-19T22:25:12.543Z,72.70
2017-07-19T22:27:39.968Z,72.40
2017-07-19T22:30:07.406Z,72.10
2017-07-19T22:32:34.831Z,72.70
2017-07-19T22:35:02.265Z,73.50
2017-07-19T22:37:29.696Z,72.90
2017-07-19T22:39:57.132Z,73.10
2017-07-19T22:42:24.556Z,73.70
2017-07-19T22:44:52.003Z,73.80
2017-07-19T22:47:19.436Z,73.60
2017-07-19T22:49:46.874Z,73.80
2017-07-19T22:52:14.299Z,74.30
2017-07-19T22:54:41.733Z,73.90
2017-07-19T22:57:09.171Z,74.00
2017-07-19T22:59:36.605Z,73.70
2017-07-19T23:02:04.065Z,73.90
2017-07-19T23:04:31.468Z,73.70
2017-07-19T23:06:58.912Z,73.70
2017-07-19T23:09:26.344Z,73.80
2017-07-19T23:11:53.776Z,73.40
2017-07-19T23:14:21.201Z,73.70
2017-07-19T23:16:48.631Z,73.60
2017-07-19T23:19:16.060Z,73.70
2017-07-19T23:21:43.501Z,74.30
2017-07-19T23:24:10.929Z,73.60
2017-07-19T23:26:38.371Z,73.80
2017-07-19T23:29:05.797Z,73.70
2017-07-19T23:31:33.240Z,74.00
2017-07-19T23:34:00.672Z,73.80
2017-07-19T23:36:28.107Z,73.70
2017-07-19T23:38:55.537Z,73.80
2017-07-19T23:41:22.966Z,73.80
2017-07-19T23:43:50.389Z,73.80
2017-07-19T23:46:17.827Z,73.80
2017-07-19T23:48:45.261Z,73.80
2017-07-19T23:51:12.714Z,74.30
2017-07-19T23:53:40.148Z,73.80
2017-07-19T23:56:08.352Z,73.60
2017-07-19T23:58:35.821Z,73.50
